createdAt,value
2022-11-16T00:04:52.958Z,12.27
2022-11-16T00:09:54.498Z,12.30
2022-11-16T00:14:56.225Z,12.27
2022-11-16T00:19:57.713Z,12.27
2022-11-16T00:24:59.270Z,12.33
2022-11-16T00:30:00.830Z,12.30
2022-11-16T00:35:02.445Z,12.34
2022-11-16T00:40:04.373Z,12.33
2022-11-16T00:45:06.294Z,12.41
2022-11-16T00:50:08.051Z,12.35
2022-11-16T00:55:09.764Z,12.36
2022-11-16T01:00:12.238Z,12.35
2022-11-16T01:05:13.984Z,12.35
2022-11-16T01:10:18.879Z,12.36
2022-11-16T01:15:22.607Z,12.37
2022-11-16T01:20:28.231Z,12.41
2022-11-16T01:25:29.961Z,12.38
2022-11-16T01:30:31.579Z,12.42
2022-11-16T01:35:45.082Z,12.43
2022-11-16T01:40:49.490Z,12.49
2022-11-16T01:45:52.497Z,12.51
2022-11-16T01:50:57.540Z,12.53
2022-11-16T01:55:59.494Z,12.49
2022-11-16T02:01:09.127Z,12.55
2022-11-16T02:06:27.444Z,12.59
2022-11-16T02:11:56.814Z,12.55
2022-11-16T02:17:10.681Z,12.56
2022-11-16T02:22:16.888Z,12.58
2022-11-16T02:27:47.779Z,12.56
2022-11-16T02:33:00.120Z,12.51
2022-11-16T02:38:15.966Z,12.46
2022-11-16T02:43:45.817Z,12.46
2022-11-16T02:48:51.310Z,12.34
2022-11-16T02:54:03.991Z,12.28
2022-11-16T02:59:13.016Z,12.27
2022-11-16T03:04:48.883Z,12.34
2022-11-16T03:09:51.953Z,12.34
2022-11-16T03:14:58.881Z,12.44
2022-11-16T03:20:21.757Z,12.47
2022-11-16T03:25:26.069Z,12.48
2022-11-16T03:30:31.618Z,12.35
2022-11-16T03:35:38.309Z,12.36
2022-11-16T03:40:44.019Z,12.39
2022-11-16T03:45:46.804Z,12.30
2022-11-16T03:50:49.717Z,12.31
2022-11-16T03:55:51.991Z,12.32
2022-11-16T04:00:54.316Z,12.28
2022-11-16T04:05:55.989Z,12.34
2022-11-16T04:10:57.674Z,12.29
2022-11-16T04:16:00.133Z,12.25
2022-11-16T04:21:02.399Z,12.22
2022-11-16T04:26:07.363Z,12.27
2022-11-16T04:31:11.258Z,12.31
2022-11-16T04:36:20.379Z,12.31
2022-11-16T04:41:22.294Z,12.30
2022-11-16T04:46:24.338Z,12.33
2022-11-16T04:51:26.074Z,12.30
2022-11-16T04:56:27.987Z,12.28
2022-11-16T05:01:29.784Z,12.40
2022-11-16T05:06:35.178Z,12.48
2022-11-16T05:11:37.174Z,12.52
2022-11-16T05:16:38.885Z,12.47
2022-11-16T05:21:40.541Z,12.39
2022-11-16T05:26:43.857Z,12.33
2022-11-16T05:31:45.978Z,12.30
2022-11-16T05:36:47.877Z,12.20
2022-11-16T05:41:50.684Z,12.06
2022-11-16T05:46:53.324Z,11.87
2022-11-16T05:51:55.223Z,11.56
2022-11-16T05:56:57.653Z,11.24
2022-11-16T06:01:59.331Z,11.15
2022-11-16T06:07:02.997Z,10.91
2022-11-16T06:12:08.615Z,10.75
2022-11-16T06:17:10.647Z,10.78
2022-11-16T06:22:12.281Z,10.70
2022-11-16T06:27:13.956Z,10.83
2022-11-16T06:32:16.600Z,10.83
2022-11-16T06:37:18.400Z,10.86
2022-11-16T06:42:20.204Z,11.01
2022-11-16T06:47:22.045Z,11.05
2022-11-16T06:52:23.834Z,11.03
2022-11-16T06:57:25.678Z,10.85
2022-11-16T07:02:27.419Z,10.85
2022-11-16T07:07:29.533Z,10.66
2022-11-16T07:12:32.236Z,10.36
2022-11-16T07:17:35.189Z,10.08
2022-11-16T07:22:37.752Z,10.16
2022-11-16T07:27:39.847Z,10.12
2022-11-16T07:32:42.140Z,10.07
2022-11-16T07:37:57.318Z,9.95
2022-11-16T07:42:58.950Z,9.97
2022-11-16T07:48:06.872Z,10.09
2022-11-16T07:53:29.815Z,10.19
2022-11-16T07:58:33.472Z,10.23
2022-11-16T08:03:37.755Z,10.35
2022-11-16T08:08:40.452Z,10.39
2022-11-16T08:13:43.102Z,11.35
2022-11-16T08:18:46.869Z,12.41
2022-11-16T08:23:55.267Z,12.34
2022-11-16T08:28:59.912Z,13.20
2022-11-16T08:34:06.026Z,13.08
2022-11-16T08:39:09.722Z,12.65
2022-11-16T08:44:12.693Z,13.33
2022-11-16T08:49:18.416Z,13.50
2022-11-16T08:54:20.393Z,14.09
2022-11-16T08:59:23.259Z,14.34
2022-11-16T09:04:28.248Z,14.81
2022-11-16T09:09:31.250Z,15.04
2022-11-16T09:14:32.839Z,14.79
2022-11-16T09:19:34.391Z,14.96
2022-11-16T09:24:36.027Z,13.76
2022-11-16T09:29:37.581Z,14.18
2022-11-16T09:34:39.209Z,14.66
2022-11-16T09:39:40.768Z,14.78
2022-11-16T09:44:58.550Z,14.96
2022-11-16T09:50:04.322Z,14.52
2022-11-16T09:55:28.657Z,14.91
2022-11-16T10:00:31.007Z,15.27
2022-11-16T10:06:00.085Z,15.38
2022-11-16T10:11:22.443Z,15.33
2022-11-16T10:16:32.632Z,15.73
2022-11-16T10:21:46.109Z,15.59
2022-11-16T10:27:20.665Z,16.08
2022-11-16T10:32:40.998Z,16.10
2022-11-16T10:37:49.434Z,15.86
2022-11-16T10:43:14.018Z,16.01
2022-11-16T10:48:31.462Z,15.00
2022-11-16T10:53:38.574Z,14.82
2022-11-16T10:58:48.919Z,14.32
2022-11-16T11:03:50.471Z,14.59
2022-11-16T11:08:52.246Z,14.96
2022-11-16T11:14:20.155Z,15.19
2022-11-16T11:19:27.402Z,15.09
2022-11-16T11:24:43.761Z,16.08
2022-11-16T11:29:52.898Z,17.13
2022-11-16T11:34:56.078Z,16.55
2022-11-16T11:40:09.908Z,14.84
2022-11-16T11:45:15.156Z,16.13
2022-11-16T11:50:16.697Z,15.97
2022-11-16T11:55:18.729Z,16.62
2022-11-16T12:00:20.675Z,17.06
2022-11-16T12:05:57.146Z,16.28
2022-11-16T12:11:11.200Z,16.00
2022-11-16T12:16:33.684Z,15.60
2022-11-16T12:21:47.353Z,15.35
2022-11-16T12:26:51.593Z,14.83
2022-11-16T12:32:25.741Z,15.16
2022-11-16T12:37:45.731Z,14.82
2022-11-16T12:43:11.614Z,15.29
2022-11-16T12:48:34.963Z,15.16
2022-11-16T12:53:42.301Z,14.75
2022-11-16T12:58:43.793Z,15.42
2022-11-16T13:04:18.504Z,16.26
2022-11-16T13:09:23.181Z,15.26
2022-11-16T13:14:37.910Z,14.76
2022-11-16T13:19:43.797Z,14.84
2022-11-16T13:24:58.140Z,14.86
2022-11-16T13:30:04.126Z,15.65
2022-11-16T13:35:11.823Z,15.64
2022-11-16T13:40:33.658Z,14.66
2022-11-16T13:45:38.798Z,14.32
2022-11-16T13:50:54.259Z,14.15
2022-11-16T13:56:01.689Z,14.28
2022-11-16T14:01:05.232Z,13.97
2022-11-16T14:06:12.904Z,13.91
2022-11-16T14:11:35.639Z,14.00
2022-11-16T14:16:44.947Z,13.93
2022-11-16T14:22:07.216Z,14.09
2022-11-16T14:27:30.854Z,14.31
2022-11-16T14:32:44.500Z,14.44
2022-11-16T14:37:46.038Z,14.47
2022-11-16T14:43:15.390Z,14.62
2022-11-16T14:48:18.525Z,14.42
2022-11-16T14:53:20.488Z,14.07
2022-11-16T14:58:23.408Z,13.91
2022-11-16T15:03:28.157Z,13.76
2022-11-16T15:08:52.098Z,13.56
2022-11-16T15:13:54.352Z,13.71
2022-11-16T15:19:01.416Z,13.51
2022-11-16T15:24:28.950Z,13.48
2022-11-16T15:29:24.702Z,13.51
2022-11-16T15:34:26.500Z,13.42
2022-11-16T15:39:34.185Z,13.34
2022-11-16T15:44:35.805Z,13.28
2022-11-16T15:49:39.030Z,13.27
2022-11-16T15:54:40.593Z,13.10
2022-11-16T15:59:51.663Z,13.16
2022-11-16T16:04:53.216Z,12.99
2022-11-16T16:10:20.655Z,13.00
2022-11-16T16:15:36.459Z,12.80
2022-11-16T16:20:38.212Z,12.37
2022-11-16T16:25:39.910Z,12.11
2022-11-16T16:30:41.934Z,11.82
2022-11-16T16:35:43.516Z,11.53
2022-11-16T16:40:45.099Z,11.22
2022-11-16T16:45:46.668Z,11.07
2022-11-16T16:50:48.388Z,10.96
2022-11-16T16:55:50.016Z,10.81
2022-11-16T17:00:53.721Z,10.62
2022-11-16T17:06:02.178Z,10.81
2022-11-16T17:11:04.754Z,10.69
2022-11-16T17:16:06.870Z,10.81
2022-11-16T17:21:09.605Z,11.17
2022-11-16T17:26:11.212Z,11.35
2022-11-16T17:31:13.653Z,11.26
2022-11-16T17:36:15.450Z,10.95
2022-11-16T17:41:19.747Z,10.83
2022-11-16T17:46:23.460Z,10.68
2022-11-16T17:51:26.105Z,10.50
2022-11-16T17:56:28.731Z,10.40
2022-11-16T18:01:30.557Z,10.45
2022-11-16T18:06:32.422Z,10.46
2022-11-16T18:11:34.005Z,10.57
2022-11-16T18:16:35.965Z,10.57
2022-11-16T18:21:41.613Z,10.58
2022-11-16T18:26:43.185Z,10.57
2022-11-16T18:31:44.939Z,10.55
2022-11-16T18:36:46.457Z,10.60
2022-11-16T18:41:53.426Z,10.73
2022-11-16T18:46:56.483Z,10.95
2022-11-16T18:51:58.153Z,11.07
2022-11-16T18:56:59.902Z,11.04
2022-11-16T19:02:01.648Z,11.01
2022-11-16T19:07:03.225Z,11.02
2022-11-16T19:12:05.267Z,11.08
2022-11-16T19:17:07.359Z,11.17
2022-11-16T19:22:08.918Z,11.27
2022-11-16T19:27:10.483Z,11.24
2022-11-16T19:32:12.165Z,11.23
2022-11-16T19:37:13.845Z,11.22
2022-11-16T19:42:15.521Z,11.35
2022-11-16T19:47:17.166Z,11.38
2022-11-16T19:52:19.816Z,11.26
2022-11-16T19:57:21.342Z,11.19
2022-11-16T20:02:23.146Z,11.14
2022-11-16T20:07:24.719Z,11.25
2022-11-16T20:12:26.782Z,11.23
2022-11-16T20:17:28.398Z,11.15
2022-11-16T20:22:29.922Z,11.13
2022-11-16T20:27:31.502Z,11.19
2022-11-16T20:32:33.057Z,11.11
2022-11-16T20:37:34.576Z,11.15
2022-11-16T20:42:36.219Z,11.18
2022-11-16T20:47:37.813Z,11.12
2022-11-16T20:52:42.725Z,11.12
2022-11-16T20:57:45.903Z,11.14
2022-11-16T21:02:47.436Z,11.13
2022-11-16T21:07:49.012Z,11.17
2022-11-16T21:12:50.568Z,11.26
2022-11-16T21:17:52.145Z,11.33
2022-11-16T21:22:53.779Z,11.45
2022-11-16T21:27:55.441Z,11.43
2022-11-16T21:32:57.201Z,11.44
2022-11-16T21:37:58.749Z,11.40
2022-11-16T21:43:00.398Z,11.31
2022-11-16T21:48:01.986Z,11.39
2022-11-16T21:53:04.879Z,11.50
2022-11-16T21:58:06.436Z,11.39
2022-11-16T22:03:07.959Z,11.35
2022-11-16T22:08:10.841Z,11.23
2022-11-16T22:13:12.413Z,11.40
2022-11-16T22:18:13.900Z,11.33
2022-11-16T22:23:19.978Z,11.22
2022-11-16T22:28:24.118Z,11.13
2022-11-16T22:33:25.837Z,11.07
2022-11-16T22:38:27.474Z,11.07
2022-11-16T22:43:30.200Z,11.08
2022-11-16T22:48:33.467Z,11.05
2022-11-16T22:53:35.470Z,11.05
2022-11-16T22:58:38.101Z,11.12
2022-11-16T23:03:40.133Z,11.14
2022-11-16T23:08:42.499Z,11.18
2022-11-16T23:13:44.838Z,11.20
2022-11-16T23:18:47.050Z,11.24
2022-11-16T23:23:48.901Z,11.29
2022-11-16T23:28:50.595Z,11.32
2022-11-16T23:33:52.167Z,11.34
2022-11-16T23:38:53.828Z,11.39
2022-11-16T23:43:55.509Z,11.44
2022-11-16T23:48:57.643Z,11.32
2022-11-16T23:53:59.501Z,11.39
2022-11-16T23:59:01.164Z,11.44
